createdAt,value
2019-02-18T00:00:53.807Z,17.45
2019-02-18T00:03:22.275Z,16.93
2019-02-18T00:05:50.673Z,14.98
2019-02-18T00:08:19.074Z,16.05
2019-02-18T00:10:47.447Z,16.85
2019-02-18T00:13:15.844Z,16.60
2019-02-18T00:15:44.299Z,16.17
2019-02-18T00:18:12.695Z,15.98
2019-02-18T00:20:41.079Z,14.38
2019-02-18T00:23:09.487Z,14.53
2019-02-18T00:25:37.878Z,15.20
2019-02-18T00:28:06.274Z,15.08
2019-02-18T00:30:34.653Z,15.58
2019-02-18T00:33:03.048Z,14.65
2019-02-18T00:35:31.433Z,14.78
2019-02-18T00:37:59.828Z,14.18
2019-02-18T00:40:28.288Z,14.47
2019-02-18T00:42:56.678Z,14.93
2019-02-18T00:45:25.217Z,14.83
2019-02-18T00:47:53.611Z,15.55
2019-02-18T00:50:22.019Z,13.85
2019-02-18T00:52:50.413Z,16.35
2019-02-18T00:55:18.791Z,14.30
2019-02-18T00:57:47.185Z,15.08
2019-02-18T01:00:16.994Z,13.72
2019-02-18T01:02:45.452Z,14.53
2019-02-18T01:05:13.857Z,13.45
2019-02-18T01:07:42.380Z,14.78
2019-02-18T01:10:12.587Z,14.10
2019-02-18T01:12:41.041Z,13.43
2019-02-18T01:15:14.288Z,15.63
2019-02-18T01:17:42.746Z,14.10
2019-02-18T01:20:13.277Z,13.60
2019-02-18T01:25:13.283Z,14.98
2019-02-18T01:27:41.675Z,14.07
2019-02-18T01:30:17.276Z,14.95
2019-02-18T01:32:45.651Z,14.15
2019-02-18T01:35:14.107Z,13.65
2019-02-18T01:37:45.586Z,14.43
2019-02-18T01:40:15.971Z,13.32
2019-02-18T01:42:44.359Z,13.62
2019-02-18T01:45:14.570Z,14.60
2019-02-18T01:47:42.947Z,14.35
2019-02-18T01:50:13.611Z,16.20
2019-02-18T01:52:42.059Z,15.10
2019-02-18T01:55:11.797Z,16.77
2019-02-18T01:57:40.312Z,17.35
2019-02-18T02:00:14.187Z,15.20
2019-02-18T02:02:42.955Z,16.85
2019-02-18T02:05:13.658Z,15.72
2019-02-18T02:07:42.118Z,15.72
2019-02-18T02:10:17.184Z,15.65
2019-02-18T02:12:45.567Z,15.32
2019-02-18T02:15:19.663Z,14.98
2019-02-18T02:17:48.124Z,15.75
2019-02-18T02:20:16.580Z,14.18
2019-02-18T02:22:44.968Z,12.93
2019-02-18T02:25:13.348Z,14.20
2019-02-18T02:27:41.807Z,14.47
2019-02-18T02:30:11.328Z,14.55
2019-02-18T02:32:39.781Z,13.62
2019-02-18T02:35:08.297Z,13.48
2019-02-18T02:37:37.072Z,14.50
2019-02-18T02:40:08.704Z,12.45
2019-02-18T02:42:37.097Z,13.50
2019-02-18T02:45:07.016Z,14.03
2019-02-18T02:47:35.417Z,13.95
2019-02-18T02:50:04.931Z,13.00
2019-02-18T02:52:33.328Z,13.32
2019-02-18T02:55:01.707Z,12.63
2019-02-18T02:57:30.096Z,13.48
2019-02-18T02:59:58.477Z,13.55
2019-02-18T03:02:26.865Z,12.65
2019-02-18T03:04:55.240Z,13.83
2019-02-18T03:07:23.625Z,13.83
2019-02-18T03:09:52.008Z,13.55
2019-02-18T03:12:20.412Z,13.68
2019-02-18T03:14:48.787Z,13.72
2019-02-18T03:17:17.185Z,13.38
2019-02-18T03:19:45.563Z,14.73
2019-02-18T03:22:13.954Z,15.03
2019-02-18T03:25:01.831Z,14.15
2019-02-18T03:27:30.588Z,13.30
2019-02-18T03:30:17.510Z,15.00
2019-02-18T03:32:45.973Z,14.47
2019-02-18T03:35:14.350Z,14.30
2019-02-18T03:37:42.809Z,14.83
2019-02-18T03:40:11.194Z,15.43
2019-02-18T03:42:39.568Z,14.03
2019-02-18T03:45:08.294Z,15.90
2019-02-18T03:47:36.685Z,16.55
2019-02-18T03:50:05.232Z,13.58
2019-02-18T03:52:33.615Z,14.93
2019-02-18T03:55:02.078Z,14.75
2019-02-18T03:57:30.524Z,13.70
2019-02-18T03:59:58.988Z,13.53
2019-02-18T04:02:27.941Z,15.00
2019-02-18T04:04:56.337Z,15.32
2019-02-18T04:07:24.725Z,14.95
2019-02-18T04:09:53.123Z,15.90
2019-02-18T04:12:21.504Z,15.45
2019-02-18T04:14:49.902Z,15.63
2019-02-18T04:17:18.281Z,15.63
2019-02-18T04:19:46.678Z,15.70
2019-02-18T04:22:15.048Z,15.88
2019-02-18T04:24:43.447Z,16.23
2019-02-18T04:27:11.836Z,16.80
2019-02-18T04:29:40.232Z,15.83
2019-02-18T04:32:08.615Z,15.32
2019-02-18T04:34:37.009Z,15.65
2019-02-18T04:37:05.382Z,15.70
2019-02-18T04:39:33.777Z,15.50
2019-02-18T04:42:02.171Z,16.45
2019-02-18T04:44:30.556Z,16.07
2019-02-18T04:46:59.014Z,15.65
2019-02-18T04:49:27.406Z,16.05
2019-02-18T04:51:55.805Z,15.65
2019-02-18T04:54:24.194Z,17.15
2019-02-18T04:56:52.579Z,14.68
2019-02-18T04:59:20.961Z,15.88
2019-02-18T05:01:49.456Z,15.68
2019-02-18T05:04:18.173Z,15.18
2019-02-18T05:06:46.564Z,15.90
2019-02-18T05:09:14.953Z,15.78
2019-02-18T05:11:43.357Z,15.03
2019-02-18T05:14:11.731Z,17.15
2019-02-18T05:16:40.129Z,16.97
2019-02-18T05:19:08.513Z,17.37
2019-02-18T05:21:36.896Z,16.95
2019-02-18T05:24:05.279Z,16.85
2019-02-18T05:26:33.684Z,17.60
2019-02-18T05:29:02.159Z,17.20
2019-02-18T05:31:30.905Z,16.90
2019-02-18T05:33:59.280Z,17.65
2019-02-18T05:36:27.668Z,16.77
2019-02-18T05:38:56.048Z,17.17
2019-02-18T05:41:24.441Z,15.75
2019-02-18T05:43:53.107Z,16.75
2019-02-18T05:46:21.507Z,14.83
2019-02-18T05:48:49.897Z,16.90
2019-02-18T05:51:18.360Z,17.10
2019-02-18T05:53:46.740Z,17.48
2019-02-18T05:56:15.129Z,16.73
2019-02-18T05:58:43.508Z,16.87
2019-02-18T06:01:11.900Z,16.25
2019-02-18T06:03:40.316Z,15.55
2019-02-18T06:06:08.755Z,16.27
2019-02-18T06:08:37.140Z,16.35
2019-02-18T06:11:05.543Z,15.60
2019-02-18T06:13:33.927Z,15.78
2019-02-18T06:16:02.326Z,17.05
2019-02-18T06:18:30.768Z,15.68
2019-02-18T06:20:59.159Z,16.17
2019-02-18T06:23:27.584Z,16.40
2019-02-18T06:25:56.017Z,15.98
2019-02-18T06:28:24.412Z,15.83
2019-02-18T06:30:54.907Z,14.80
2019-02-18T06:33:22.911Z,16.00
2019-02-18T06:35:51.288Z,15.55
2019-02-18T06:38:19.680Z,16.87
2019-02-18T06:40:48.084Z,16.05
2019-02-18T06:43:16.480Z,15.03
2019-02-18T06:45:46.532Z,16.52
2019-02-18T06:48:25.314Z,15.78
2019-02-18T06:50:53.768Z,16.17
2019-02-18T06:53:22.169Z,16.45
2019-02-18T06:55:50.555Z,15.72
2019-02-18T06:58:20.588Z,15.48
2019-02-18T07:00:56.267Z,16.15
2019-02-18T07:03:28.774Z,16.73
2019-02-18T07:05:58.791Z,16.50
2019-02-18T07:08:28.824Z,14.95
2019-02-18T07:10:58.852Z,15.05
2019-02-18T07:13:27.253Z,15.23
2019-02-18T07:15:55.637Z,14.10
2019-02-18T07:18:24.029Z,14.85
2019-02-18T07:20:52.408Z,14.87
2019-02-18T07:23:20.798Z,14.98
2019-02-18T07:25:49.181Z,14.38
2019-02-18T07:28:17.580Z,13.90
2019-02-18T07:30:45.967Z,12.73
2019-02-18T07:33:14.356Z,13.43
2019-02-18T07:35:42.737Z,13.60
2019-02-18T07:38:11.133Z,13.98
2019-02-18T07:40:39.520Z,14.30
2019-02-18T07:43:07.921Z,13.48
2019-02-18T07:45:36.298Z,13.65
2019-02-18T07:48:04.690Z,13.78
2019-02-18T07:50:33.080Z,12.98
2019-02-18T07:53:01.464Z,13.45
2019-02-18T07:55:29.849Z,12.85
2019-02-18T07:57:58.243Z,11.80
2019-02-18T08:00:26.914Z,12.63
2019-02-18T08:02:55.342Z,12.90
2019-02-18T08:05:23.743Z,12.63
2019-02-18T08:07:52.122Z,14.30
2019-02-18T08:10:20.512Z,12.93
2019-02-18T08:12:48.899Z,12.40
2019-02-18T08:15:17.358Z,12.00
2019-02-18T08:17:45.739Z,12.50
2019-02-18T08:20:14.166Z,12.45
2019-02-18T08:22:42.538Z,11.78
2019-02-18T08:25:13.043Z,12.50
2019-02-18T08:27:41.432Z,11.78
2019-02-18T08:30:12.470Z,11.90
2019-02-18T08:32:40.860Z,11.33
2019-02-18T08:35:09.605Z,11.15
2019-02-18T08:37:37.979Z,11.15
2019-02-18T08:40:08.716Z,11.50
2019-02-18T08:42:37.108Z,11.60
2019-02-18T08:45:11.213Z,11.88
2019-02-18T08:47:39.680Z,11.48
2019-02-18T08:50:10.798Z,11.53
2019-02-18T08:52:39.180Z,11.53
2019-02-18T08:55:10.320Z,11.08
2019-02-18T08:57:38.715Z,11.57
2019-02-18T09:00:17.317Z,10.05
2019-02-18T09:02:45.705Z,9.65
2019-02-18T09:05:14.296Z,9.90
2019-02-18T09:07:42.868Z,9.68
2019-02-18T09:10:13.203Z,9.03
2019-02-18T09:12:41.577Z,9.95
2019-02-18T09:15:11.211Z,9.10
2019-02-18T09:17:39.599Z,9.70
2019-02-18T09:20:10.317Z,8.58
2019-02-18T09:22:49.082Z,9.18
2019-02-18T09:25:19.186Z,9.03
2019-02-18T09:27:49.281Z,8.40
2019-02-18T09:30:19.306Z,9.48
2019-02-18T09:32:47.692Z,8.33
2019-02-18T09:35:16.079Z,8.83
2019-02-18T09:37:44.478Z,9.50
2019-02-18T09:40:12.873Z,8.68
2019-02-18T09:42:41.255Z,8.58
2019-02-18T09:45:14.540Z,8.08
2019-02-18T09:47:41.948Z,9.68
2019-02-18T09:50:10.872Z,7.85
2019-02-18T09:52:39.268Z,8.80
2019-02-18T09:55:09.613Z,8.40
2019-02-18T09:57:38.003Z,7.83
2019-02-18T10:00:12.965Z,9.53
2019-02-18T10:02:41.359Z,8.20
2019-02-18T10:05:09.744Z,7.28
2019-02-18T10:07:38.219Z,7.08
2019-02-18T10:10:09.241Z,7.83
2019-02-18T10:12:37.648Z,7.22
2019-02-18T10:15:08.882Z,8.08
2019-02-18T10:17:37.275Z,8.13
2019-02-18T10:20:08.739Z,7.60
2019-02-18T10:22:37.130Z,6.87
2019-02-18T10:25:10.712Z,6.55
2019-02-18T10:27:39.107Z,6.50
2019-02-18T10:30:09.736Z,7.65
2019-02-18T10:32:38.169Z,7.22
2019-02-18T10:35:11.689Z,7.20
2019-02-18T10:37:40.093Z,6.35
2019-02-18T10:40:09.808Z,6.40
2019-02-18T10:42:38.282Z,6.45
2019-02-18T10:45:09.965Z,6.30
2019-02-18T10:47:38.357Z,6.50
2019-02-18T10:50:09.321Z,6.95
2019-02-18T10:52:37.716Z,6.45
2019-02-18T10:55:08.535Z,7.37
2019-02-18T10:57:37.216Z,5.90
2019-02-18T11:00:14.757Z,5.80
2019-02-18T11:02:43.145Z,6.72
2019-02-18T11:05:11.618Z,5.90
2019-02-18T11:07:40.084Z,6.00
2019-02-18T11:10:11.511Z,5.87
2019-02-18T11:12:39.901Z,5.75
2019-02-18T11:15:10.720Z,6.33
2019-02-18T11:17:39.354Z,5.53
2019-02-18T11:20:10.570Z,6.30
2019-02-18T11:22:38.945Z,5.65
2019-02-18T11:25:11.920Z,5.97
2019-02-18T11:27:40.377Z,5.60
2019-02-18T11:30:14.283Z,4.85
2019-02-18T11:32:42.656Z,4.95
2019-02-18T11:35:11.185Z,5.30
2019-02-18T11:37:39.565Z,5.72
2019-02-18T11:40:14.123Z,5.40
2019-02-18T11:42:42.576Z,4.97
2019-02-18T11:45:14.210Z,5.12
2019-02-18T11:47:42.676Z,4.95
2019-02-18T11:50:12.920Z,4.92
2019-02-18T11:52:41.564Z,4.67
2019-02-18T11:55:14.367Z,5.40
2019-02-18T11:57:43.329Z,5.65
2019-02-18T12:00:16.158Z,5.08
2019-02-18T12:02:44.620Z,4.95
2019-02-18T12:05:13.483Z,4.65
2019-02-18T12:07:41.864Z,5.10
2019-02-18T12:10:13.848Z,4.90
2019-02-18T12:12:42.656Z,4.83
2019-02-18T12:15:15.013Z,4.33
2019-02-18T12:17:43.481Z,5.10
2019-02-18T12:20:13.301Z,4.87
2019-02-18T12:22:41.757Z,5.55
2019-02-18T12:25:11.206Z,4.55
2019-02-18T12:27:39.973Z,4.53
2019-02-18T12:30:14.273Z,4.47
2019-02-18T12:32:42.662Z,4.80
2019-02-18T12:35:11.190Z,5.67
2019-02-18T12:37:39.585Z,4.90
2019-02-18T12:40:12.698Z,4.78
2019-02-18T12:42:42.432Z,4.20
2019-02-18T12:45:12.215Z,5.08
2019-02-18T12:47:40.836Z,4.97
2019-02-18T12:50:10.881Z,3.98
2019-02-18T12:52:39.263Z,4.08
2019-02-18T12:55:10.050Z,4.45
2019-02-18T12:57:38.872Z,4.00
2019-02-18T13:00:10.415Z,4.90
2019-02-18T13:02:44.438Z,4.80
2019-02-18T13:05:09.416Z,4.00
2019-02-18T13:07:37.806Z,3.72
2019-02-18T13:10:08.264Z,3.62
2019-02-18T13:15:08.025Z,3.55
2019-02-18T13:17:36.554Z,3.75
2019-02-18T13:20:06.587Z,3.65
2019-02-18T13:22:34.992Z,3.25
2019-02-18T13:25:03.469Z,3.58
2019-02-18T13:27:31.843Z,3.65
2019-02-18T13:30:00.485Z,3.20
2019-02-18T13:32:28.876Z,3.40
2019-02-18T13:34:57.269Z,3.52
2019-02-18T13:37:25.735Z,3.08
2019-02-18T13:39:54.283Z,3.72
2019-02-18T13:42:22.683Z,3.42
2019-02-18T13:44:51.052Z,3.47
2019-02-18T13:47:19.830Z,3.37
2019-02-18T13:49:48.448Z,3.65
2019-02-18T13:52:16.840Z,3.65
2019-02-18T13:54:45.303Z,3.40
2019-02-18T13:57:13.693Z,3.10
2019-02-18T13:59:42.072Z,3.70
2019-02-18T14:02:10.610Z,2.92
2019-02-18T14:04:38.982Z,3.80
2019-02-18T14:07:07.449Z,3.42
2019-02-18T14:09:36.208Z,3.65
2019-02-18T14:12:04.674Z,3.72
2019-02-18T14:14:33.068Z,4.10
2019-02-18T14:17:01.605Z,4.28
2019-02-18T14:19:30.364Z,4.60
2019-02-18T14:21:58.748Z,4.90
2019-02-18T14:24:27.131Z,4.40
2019-02-18T14:26:55.520Z,4.83
2019-02-18T14:29:23.915Z,4.80
2019-02-18T14:31:52.309Z,4.22
2019-02-18T14:34:21.064Z,3.67
2019-02-18T14:36:49.523Z,4.35
2019-02-18T14:39:19.564Z,4.40
2019-02-18T14:41:47.953Z,4.50
2019-02-18T14:44:16.323Z,4.17
2019-02-18T14:46:44.981Z,4.22
2019-02-18T14:49:13.737Z,4.03
2019-02-18T14:51:42.137Z,4.22
2019-02-18T14:54:10.516Z,4.28
2019-02-18T14:56:38.909Z,3.50
2019-02-18T14:59:07.367Z,3.72
2019-02-18T15:01:35.803Z,3.98
2019-02-18T15:04:04.493Z,4.67
2019-02-18T15:06:33.266Z,4.12
2019-02-18T15:09:01.652Z,5.45
2019-02-18T15:11:30.035Z,3.85
2019-02-18T15:13:58.432Z,4.37
2019-02-18T15:16:26.816Z,4.95
2019-02-18T15:18:55.207Z,4.10
2019-02-18T15:21:23.598Z,4.85
2019-02-18T15:23:51.990Z,3.55
2019-02-18T15:26:20.456Z,3.83
2019-02-18T15:28:48.836Z,4.40
2019-02-18T15:31:17.216Z,5.25
2019-02-18T15:33:45.658Z,5.45
2019-02-18T15:36:14.079Z,4.50
2019-02-18T15:38:42.752Z,4.17
2019-02-18T15:41:11.396Z,4.30
2019-02-18T15:43:39.796Z,3.60
2019-02-18T15:46:08.179Z,4.47
2019-02-18T15:48:36.603Z,3.80
2019-02-18T15:51:05.051Z,4.85
2019-02-18T15:53:33.449Z,4.35
2019-02-18T15:56:01.836Z,4.78
2019-02-18T15:58:30.468Z,4.47
2019-02-18T16:00:59.343Z,4.28
2019-02-18T16:03:28.260Z,4.37
2019-02-18T16:05:56.635Z,4.92
2019-02-18T16:08:25.331Z,4.62
2019-02-18T16:10:53.783Z,4.65
2019-02-18T16:13:22.244Z,4.65
2019-02-18T16:15:50.885Z,5.72
2019-02-18T16:18:19.279Z,5.55
2019-02-18T16:20:47.659Z,5.70
2019-02-18T16:23:16.048Z,5.75
2019-02-18T16:25:44.929Z,6.65
2019-02-18T16:28:13.309Z,5.55
2019-02-18T16:30:41.693Z,7.00
2019-02-18T16:33:10.089Z,6.42
2019-02-18T16:35:38.851Z,6.80
2019-02-18T16:38:07.243Z,7.00
2019-02-18T16:40:36.009Z,9.03
2019-02-18T16:43:04.396Z,10.03
2019-02-18T16:45:32.863Z,8.43
2019-02-18T16:48:01.523Z,8.18
2019-02-18T16:50:29.923Z,7.10
2019-02-18T16:52:58.313Z,6.45
2019-02-18T16:55:26.708Z,7.70
2019-02-18T16:57:55.476Z,25.23
2019-02-18T17:00:28.547Z,10.05
2019-02-18T17:02:56.935Z,11.15
2019-02-18T17:05:25.343Z,12.65
2019-02-18T17:07:54.619Z,11.00
2019-02-18T17:10:23.016Z,12.58
2019-02-18T17:12:51.754Z,15.60
2019-02-18T17:15:20.149Z,11.35
2019-02-18T17:17:48.540Z,11.68
2019-02-18T17:20:16.936Z,10.65
2019-02-18T17:22:45.321Z,9.30
2019-02-18T17:25:14.188Z,11.00
2019-02-18T17:27:42.961Z,10.35
2019-02-18T17:30:15.466Z,10.95
2019-02-18T17:32:43.929Z,11.03
2019-02-18T17:35:13.772Z,9.28
2019-02-18T17:37:42.155Z,9.48
2019-02-18T17:40:14.626Z,9.95
2019-02-18T17:42:43.351Z,11.25
2019-02-18T17:45:14.156Z,10.48
2019-02-18T17:47:42.549Z,9.78
2019-02-18T17:50:15.282Z,12.68
2019-02-18T17:52:43.909Z,14.40
2019-02-18T17:55:14.911Z,10.63
2019-02-18T17:57:43.579Z,10.60
2019-02-18T18:00:17.369Z,13.45
2019-02-18T18:02:45.756Z,12.30
2019-02-18T18:05:15.200Z,10.35
2019-02-18T18:07:43.594Z,10.00
2019-02-18T18:10:13.224Z,10.50
2019-02-18T18:12:41.610Z,10.93
2019-02-18T18:15:17.919Z,10.72
2019-02-18T18:17:46.307Z,8.55
2019-02-18T18:20:14.964Z,10.03
2019-02-18T18:22:43.347Z,9.53
2019-02-18T18:25:13.463Z,9.43
2019-02-18T18:27:42.096Z,8.67
2019-02-18T18:30:15.701Z,9.43
2019-02-18T18:32:45.252Z,10.10
2019-02-18T18:35:13.928Z,9.60
2019-02-18T18:37:42.316Z,9.10
2019-02-18T18:40:19.347Z,9.60
2019-02-18T18:42:47.765Z,9.05
2019-02-18T18:45:17.297Z,10.20
2019-02-18T18:47:45.680Z,8.75
2019-02-18T18:50:16.480Z,9.28
2019-02-18T18:52:45.251Z,10.28
2019-02-18T18:55:13.637Z,10.08
2019-02-18T18:57:42.031Z,9.00
2019-02-18T19:00:23.465Z,9.30
2019-02-18T19:02:51.851Z,11.15
2019-02-18T19:05:20.692Z,9.45
2019-02-18T19:07:49.151Z,9.88
2019-02-18T19:10:17.538Z,8.63
2019-02-18T19:12:45.939Z,10.20
2019-02-18T19:15:16.934Z,10.30
2019-02-18T19:17:45.325Z,9.60
2019-02-18T19:20:14.252Z,10.20
2019-02-18T19:22:42.660Z,10.43
2019-02-18T19:25:12.680Z,9.58
2019-02-18T19:27:41.215Z,12.35
2019-02-18T19:30:24.075Z,10.65
2019-02-18T19:32:52.547Z,11.65
2019-02-18T19:35:20.943Z,11.18
2019-02-18T19:37:49.356Z,10.70
2019-02-18T19:40:17.750Z,10.65
2019-02-18T19:42:46.212Z,10.50
2019-02-18T19:45:20.445Z,11.25
2019-02-18T19:47:48.872Z,9.83
2019-02-18T19:50:18.295Z,11.25
2019-02-18T19:52:46.880Z,11.78
2019-02-18T19:55:15.250Z,11.45
2019-02-18T19:57:43.643Z,12.58
2019-02-18T20:00:17.449Z,11.65
2019-02-18T20:02:45.844Z,12.28
2019-02-18T20:05:14.361Z,12.13
2019-02-18T20:07:44.154Z,11.88
2019-02-18T20:10:13.351Z,12.40
2019-02-18T20:12:42.105Z,13.75
2019-02-18T20:15:15.639Z,14.25
2019-02-18T20:17:44.108Z,21.30
2019-02-18T20:20:14.694Z,19.73
2019-02-18T20:25:10.897Z,18.37
2019-02-18T20:27:39.297Z,25.32
2019-02-18T20:30:13.299Z,24.23
2019-02-18T20:32:41.686Z,27.37
2019-02-18T20:35:11.022Z,20.77
2019-02-18T20:37:39.480Z,15.93
2019-02-18T20:40:10.174Z,14.65
2019-02-18T20:42:38.941Z,13.05
2019-02-18T20:45:12.121Z,13.93
2019-02-18T20:47:40.508Z,15.85
2019-02-18T20:50:11.031Z,16.50
2019-02-18T20:52:39.501Z,17.57
2019-02-18T20:55:15.023Z,15.40
2019-02-18T20:57:43.480Z,13.10
2019-02-18T21:00:15.295Z,13.30
2019-02-18T21:02:43.739Z,13.35
2019-02-18T21:05:12.134Z,13.10
2019-02-18T21:07:40.580Z,12.85
2019-02-18T21:10:14.219Z,11.90
2019-02-18T21:12:42.604Z,12.18
2019-02-18T21:15:10.995Z,12.58
2019-02-18T21:17:39.386Z,12.18
2019-02-18T21:20:10.183Z,11.70
2019-02-18T21:22:38.564Z,12.20
2019-02-18T21:25:08.866Z,11.57
2019-02-18T21:27:37.248Z,13.43
2019-02-18T21:30:11.509Z,12.58
2019-02-18T21:32:40.076Z,16.02
2019-02-18T21:35:08.527Z,18.32
2019-02-18T21:37:36.916Z,16.10
2019-02-18T21:40:07.854Z,15.60
2019-02-18T21:42:36.230Z,18.45
2019-02-18T21:45:07.272Z,21.90
2019-02-18T21:47:35.651Z,21.73
2019-02-18T21:50:05.984Z,18.17
2019-02-18T21:52:34.376Z,14.50
2019-02-18T21:55:02.770Z,14.65
2019-02-18T21:57:31.152Z,14.87
2019-02-18T21:59:59.550Z,15.63
2019-02-18T22:02:27.940Z,12.75
2019-02-18T22:04:56.347Z,13.48
2019-02-18T22:07:24.724Z,13.32
2019-02-18T22:09:53.825Z,12.50
2019-02-18T22:12:22.213Z,13.48
2019-02-18T22:14:50.605Z,13.40
2019-02-18T22:17:19.274Z,14.28
2019-02-18T22:19:47.665Z,14.65
2019-02-18T22:22:16.044Z,15.35
2019-02-18T22:24:44.452Z,15.35
2019-02-18T22:27:13.108Z,14.80
2019-02-18T22:29:41.495Z,14.55
2019-02-18T22:32:09.887Z,15.08
2019-02-18T22:34:38.289Z,14.43
2019-02-18T22:37:06.677Z,14.58
2019-02-18T22:39:35.057Z,13.65
2019-02-18T22:42:03.448Z,15.03
2019-02-18T22:44:32.223Z,14.87
2019-02-18T22:47:00.860Z,13.70
2019-02-18T22:49:29.249Z,12.73
2019-02-18T22:51:57.641Z,13.50
2019-02-18T22:54:26.031Z,13.25
2019-02-18T22:56:54.417Z,12.78
2019-02-18T22:59:22.877Z,13.22
2019-02-18T23:01:51.308Z,12.80
2019-02-18T23:04:19.705Z,13.95
2019-02-18T23:06:48.160Z,13.83
2019-02-18T23:09:16.608Z,14.30
2019-02-18T23:11:45.005Z,14.18
2019-02-18T23:14:13.375Z,14.20
2019-02-18T23:16:41.856Z,16.30
2019-02-18T23:19:10.519Z,15.58
2019-02-18T23:21:40.503Z,15.60
2019-02-18T23:24:08.963Z,16.05
2019-02-18T23:26:37.356Z,16.07
2019-02-18T23:29:05.737Z,15.58
2019-02-18T23:31:34.131Z,15.85
2019-02-18T23:34:02.787Z,15.35
2019-02-18T23:36:31.193Z,13.72
2019-02-18T23:38:59.572Z,15.15
2019-02-18T23:41:27.964Z,14.35
2019-02-18T23:43:56.416Z,16.57
2019-02-18T23:46:24.812Z,16.12
2019-02-18T23:48:53.185Z,18.27
2019-02-18T23:51:21.575Z,18.02
2019-02-18T23:53:49.959Z,15.85
2019-02-18T23:56:37.935Z,16.15
2019-02-18T23:59:06.311Z,14.30
